Time;durP1;ratioP1;P1;durP2;ratioP2;P2;SDS_P1;SDS_P2;PMS_P1;PMS_P2;Temp;Humidity;BMP_temperature;BMP_pressure;BME280_temperature;BME280_humidity;BME280_pressure;Samples;Min_cycle;Max_cycle;Signal;HPM_P1;HPM_P2
2021/07/15 00:00:40;;;;;;;;;;;18.50;99.90;;;;;;5033943;28;19956;-77
2021/07/15 00:03:07;;;;;;;;;;;18.50;99.90;;;;;;5034050;28;19947;-76
2021/07/15 00:05:32;;;;;;;;;;;18.50;99.90;;;;;;5030380;28;19913;-76
2021/07/15 00:07:58;;;;;;;;;;;18.50;99.90;;;;;;5049671;28;20070;-78
2021/07/15 00:10:34;;;;;;;;;;;18.50;99.90;;;;;;5016250;28;19924;-77
2021/07/15 00:13:01;;;;;;;;;;;18.50;99.90;;;;;;5018004;28;19913;-76
2021/07/15 00:15:27;;;;;;;;;;;18.50;99.90;;;;;;5011586;28;19964;-77
2021/07/15 00:17:53;;;;;;;;;;;18.50;99.90;;;;;;5033977;28;19917;-76
2021/07/15 00:20:19;;;;;;;;;;;18.50;99.90;;;;;;5013750;28;20491;-78
2021/07/15 00:22:45;;;;;;;;;;;18.50;99.90;;;;;;5033882;28;19913;-77
2021/07/15 00:25:12;;;;;;;;;;;18.50;99.90;;;;;;5031916;28;19917;-76
2021/07/15 00:27:38;;;;;;;;;;;18.50;99.90;;;;;;5015478;28;19967;-78
2021/07/15 00:30:05;;;;;;;;;;;18.50;99.90;;;;;;5029630;28;19913;-77
2021/07/15 00:32:31;;;;;;;;;;;18.50;99.90;;;;;;5033495;28;19913;-76
2021/07/15 00:34:57;;;;;;;;;;;18.50;99.90;;;;;;5028596;28;20386;-77
2021/07/15 00:37:23;;;;;;;;;;;18.40;99.90;;;;;;5031762;28;19925;-75
2021/07/15 00:39:48;;;;;;;;;;;18.40;99.90;;;;;;5029421;28;19918;-76
2021/07/15 00:42:14;;;;;;;;;;;18.40;99.90;;;;;;5023341;28;19931;-77
2021/07/15 00:44:40;;;;;;;;;;;18.30;99.90;;;;;;5031466;28;19927;-80
2021/07/15 00:47:05;;;;;;;;;;;18.30;99.90;;;;;;5033263;28;19917;-78
2021/07/15 00:49:31;;;;;;;;;;;18.30;99.90;;;;;;5033541;28;19917;-76
2021/07/15 00:51:56;;;;;;;;;;;18.20;99.90;;;;;;5014208;28;19909;-75
2021/07/15 00:54:22;;;;;;;;;;;18.20;99.90;;;;;;5029910;28;20227;-80
2021/07/15 00:56:48;;;;;;;;;;;18.20;99.90;;;;;;5043370;28;19921;-75
2021/07/15 00:59:13;;;;;;;;;;;18.20;99.90;;;;;;5012336;28;20014;-78
2021/07/15 01:01:39;;;;;;;;;;;18.20;99.90;;;;;;5028598;28;20213;-74
2021/07/15 01:04:05;;;;;;;;;;;18.20;99.90;;;;;;5014477;28;19921;-76
2021/07/15 01:06:30;;;;;;;;;;;18.20;99.90;;;;;;5012768;28;19921;-80
2021/07/15 01:08:56;;;;;;;;;;;18.20;99.90;;;;;;5013398;28;19920;-76
2021/07/15 01:11:44;;;;;;;;;;;18.20;99.90;;;;;;5045348;28;20257;-76
2021/07/15 01:14:13;;;;;;;;;;;18.20;99.90;;;;;;5013203;28;20304;-75
2021/07/15 01:17:00;;;;;;;;;;;18.20;99.90;;;;;;5004653;28;19917;-79
2021/07/15 01:19:28;;;;;;;;;;;18.10;99.90;;;;;;5026917;28;20637;-78
2021/07/15 01:22:12;;;;;;;;;;;18.10;99.90;;;;;;5014054;28;19936;-76
2021/07/15 01:24:56;;;;;;;;;;;18.10;99.90;;;;;;5013636;28;20224;-77
2021/07/15 01:27:32;;;;;;;;;;;18.00;99.90;;;;;;5009122;28;19929;-78
2021/07/15 01:30:18;;;;;;;;;;;18.00;99.90;;;;;;5029085;28;19921;-78
2021/07/15 01:32:46;;;;;;;;;;;18.00;99.90;;;;;;5012739;28;20311;-78
2021/07/15 01:35:13;;;;;;;;;;;18.00;99.90;;;;;;5029034;28;19921;-77
2021/07/15 01:37:39;;;;;;;;;;;18.00;99.90;;;;;;5013322;28;20016;-78
2021/07/15 01:40:07;;;;;;;;;;;18.00;99.90;;;;;;5015746;28;19914;-81
2021/07/15 01:42:33;;;;;;;;;;;17.90;99.90;;;;;;5015518;28;20315;-78
2021/07/15 01:44:59;;;;;;;;;;;17.90;99.90;;;;;;5014268;28;19995;-79
2021/07/15 01:47:26;;;;;;;;;;;17.90;99.90;;;;;;5033353;28;20300;-80
2021/07/15 01:49:54;;;;;;;;;;;17.90;99.90;;;;;;5017691;28;19926;-77
2021/07/15 01:52:21;;;;;;;;;;;17.80;99.90;;;;;;5031940;28;19936;-78
2021/07/15 01:54:50;;;;;;;;;;;17.90;99.90;;;;;;5032173;28;19929;-78
2021/07/15 01:57:18;;;;;;;;;;;17.90;99.90;;;;;;5016035;28;19921;-75
2021/07/15 01:59:44;;;;;;;;;;;17.90;99.90;;;;;;5017020;28;20020;-81
2021/07/15 02:02:10;;;;;;;;;;;17.90;99.90;;;;;;5016775;28;19913;-79
2021/07/15 02:04:38;;;;;;;;;;;17.90;99.90;;;;;;5014149;28;20440;-78
2021/07/15 02:07:04;;;;;;;;;;;17.90;99.90;;;;;;5011337;28;19918;-79
2021/07/15 02:09:29;;;;;;;;;;;17.90;99.90;;;;;;5013815;28;20287;-76
2021/07/15 02:11:55;;;;;;;;;;;17.90;99.90;;;;;;5016478;28;19910;-79
2021/07/15 02:14:22;;;;;;;;;;;17.90;99.90;;;;;;5016029;28;19922;-77
2021/07/15 02:16:50;;;;;;;;;;;17.90;99.90;;;;;;5024842;28;19964;-76
2021/07/15 02:19:16;;;;;;;;;;;17.90;99.90;;;;;;5031177;28;19921;-76
2021/07/15 02:21:41;;;;;;;;;;;17.90;99.90;;;;;;5032366;28;19918;-79
2021/07/15 02:24:09;;;;;;;;;;;17.90;99.90;;;;;;5025907;28;20008;-76
2021/07/15 02:26:36;;;;;;;;;;;17.90;99.90;;;;;;5015769;28;19921;-79
2021/07/15 02:29:02;;;;;;;;;;;17.90;99.90;;;;;;5016443;28;20418;-77
2021/07/15 02:31:30;;;;;;;;;;;17.90;99.90;;;;;;5014367;28;20368;-78
2021/07/15 02:34:02;;;;;;;;;;;17.90;99.90;;;;;;5020694;28;19917;-76
2021/07/15 02:36:29;;;;;;;;;;;17.90;99.90;;;;;;5011266;28;19924;-75
2021/07/15 02:38:56;;;;;;;;;;;17.90;99.90;;;;;;5017072;28;19913;-78
2021/07/15 02:41:21;;;;;;;;;;;17.90;99.90;;;;;;5002493;28;20284;-81
2021/07/15 02:43:47;;;;;;;;;;;17.90;99.90;;;;;;5024117;28;19971;-78
2021/07/15 02:46:13;;;;;;;;;;;17.80;99.90;;;;;;5023924;28;19941;-77
2021/07/15 02:48:39;;;;;;;;;;;17.90;99.90;;;;;;5013554;28;19913;-75
2021/07/15 02:51:04;;;;;;;;;;;17.90;99.90;;;;;;5009634;28;19956;-84
2021/07/15 02:53:30;;;;;;;;;;;17.90;99.90;;;;;;5015818;28;20004;-79
2021/07/15 02:56:06;;;;;;;;;;;17.90;99.90;;;;;;5021145;28;19979;-77
2021/07/15 02:58:35;;;;;;;;;;;17.80;99.90;;;;;;5036256;28;20331;-78
2021/07/15 03:01:02;;;;;;;;;;;17.80;99.90;;;;;;5029996;28;19913;-80
2021/07/15 03:03:46;;;;;;;;;;;17.80;99.90;;;;;;5031304;28;19924;-76
2021/07/15 03:06:13;;;;;;;;;;;17.70;99.90;;;;;;5033516;28;19922;-78
2021/07/15 03:08:50;;;;;;;;;;;17.80;99.90;;;;;;5034928;28;19983;-78
2021/07/15 03:11:16;;;;;;;;;;;17.80;99.90;;;;;;5033180;28;19917;-80
2021/07/15 03:13:44;;;;;;;;;;;17.80;99.90;;;;;;5034655;28;19917;-78
2021/07/15 03:16:10;;;;;;;;;;;17.80;99.90;;;;;;5033656;28;19917;-78
2021/07/15 03:18:36;;;;;;;;;;;17.80;99.90;;;;;;5034706;28;20296;-80
2021/07/15 03:21:04;;;;;;;;;;;17.80;99.90;;;;;;5032476;28;19913;-83
2021/07/15 03:23:31;;;;;;;;;;;17.80;99.90;;;;;;5034926;28;20223;-77
2021/07/15 03:25:57;;;;;;;;;;;17.70;99.90;;;;;;5035065;28;19913;-79
2021/07/15 03:28:25;;;;;;;;;;;17.80;99.90;;;;;;5033855;28;19913;-81
2021/07/15 03:30:53;;;;;;;;;;;17.80;99.90;;;;;;5035874;28;19914;-77
2021/07/15 03:33:21;;;;;;;;;;;17.70;99.90;;;;;;5033876;28;20304;-77
2021/07/15 03:35:47;;;;;;;;;;;17.70;99.90;;;;;;5036655;28;19968;-78
2021/07/15 03:38:13;;;;;;;;;;;17.80;99.90;;;;;;5036046;28;19952;-79
2021/07/15 03:40:39;;;;;;;;;;;17.80;99.90;;;;;;5033793;28;19917;-78
2021/07/15 03:43:07;;;;;;;;;;;17.80;99.90;;;;;;5016277;28;19917;-80
2021/07/15 03:45:33;;;;;;;;;;;17.80;99.90;;;;;;5031857;28;19994;-78
2021/07/15 03:47:59;;;;;;;;;;;17.70;99.90;;;;;;5035196;28;19913;-80
2021/07/15 03:50:26;;;;;;;;;;;17.70;99.90;;;;;;5017651;28;19917;-77
2021/07/15 03:52:54;;;;;;;;;;;17.60;99.90;;;;;;5016925;28;20197;-80
2021/07/15 03:55:27;;;;;;;;;;;17.60;99.90;;;;;;5015034;28;19917;-81
2021/07/15 03:57:53;;;;;;;;;;;17.60;99.90;;;;;;5032818;28;19921;-82
2021/07/15 04:00:20;;;;;;;;;;;17.60;99.90;;;;;;5017559;28;19936;-79
2021/07/15 04:02:46;;;;;;;;;;;17.60;99.90;;;;;;5016248;28;19978;-78
2021/07/15 04:05:12;;;;;;;;;;;17.60;99.90;;;;;;5033801;28;19924;-80
2021/07/15 04:07:39;;;;;;;;;;;17.60;99.90;;;;;;5033787;28;19917;-80
2021/07/15 04:10:04;;;;;;;;;;;17.60;99.90;;;;;;5034706;28;20004;-77
2021/07/15 04:12:31;;;;;;;;;;;17.50;99.90;;;;;;5017324;28;19917;-77
2021/07/15 04:15:02;;;;;;;;;;;17.60;99.90;;;;;;5031465;28;19925;-78
2021/07/15 04:17:30;;;;;;;;;;;17.50;99.90;;;;;;5033756;28;20692;-79
2021/07/15 04:19:59;;;;;;;;;;;17.50;99.90;;;;;;5032135;28;20007;-80
2021/07/15 04:22:26;;;;;;;;;;;17.50;99.90;;;;;;5014682;28;19910;-77
2021/07/15 04:24:52;;;;;;;;;;;17.50;99.90;;;;;;5030872;28;20225;-80
2021/07/15 04:27:18;;;;;;;;;;;17.50;99.90;;;;;;5035035;28;19998;-86
2021/07/15 04:29:44;;;;;;;;;;;17.50;99.90;;;;;;5033889;28;19960;-78
2021/07/15 04:32:15;;;;;;;;;;;17.50;99.90;;;;;;5033177;28;19909;-76
2021/07/15 04:34:41;;;;;;;;;;;17.50;99.90;;;;;;5031787;28;19913;-83
2021/07/15 04:37:07;;;;;;;;;;;17.40;99.90;;;;;;5033050;28;19917;-79
2021/07/15 04:39:33;;;;;;;;;;;17.40;99.90;;;;;;5033956;28;19913;-77
2021/07/15 04:42:00;;;;;;;;;;;17.40;99.90;;;;;;5032769;28;19917;-78
2021/07/15 04:44:29;;;;;;;;;;;17.50;99.90;;;;;;5018594;28;19924;-79
2021/07/15 04:46:55;;;;;;;;;;;17.40;99.90;;;;;;5016448;28;19913;-82
2021/07/15 04:49:21;;;;;;;;;;;17.40;99.90;;;;;;5033234;28;19917;-76
2021/07/15 04:51:48;;;;;;;;;;;17.40;99.90;;;;;;5033232;28;19974;-79
2021/07/15 04:54:15;;;;;;;;;;;17.40;99.90;;;;;;5034366;28;20008;-76
2021/07/15 04:56:40;;;;;;;;;;;17.40;99.90;;;;;;5033921;28;19921;-77
2021/07/15 04:59:07;;;;;;;;;;;17.40;99.90;;;;;;5045008;28;20223;-76
2021/07/15 05:01:33;;;;;;;;;;;17.40;99.90;;;;;;5033392;28;20208;-77
2021/07/15 05:03:58;;;;;;;;;;;17.40;99.90;;;;;;5034245;28;20370;-76
2021/07/15 05:06:24;;;;;;;;;;;17.40;99.90;;;;;;5014064;28;20060;-79
2021/07/15 05:08:49;;;;;;;;;;;17.40;99.90;;;;;;5034381;28;19920;-79
2021/07/15 05:11:15;;;;;;;;;;;17.40;99.90;;;;;;5028848;28;19913;-78
2021/07/15 05:13:41;;;;;;;;;;;17.30;99.90;;;;;;5015102;28;20185;-78
2021/07/15 05:16:07;;;;;;;;;;;17.30;99.90;;;;;;5020233;28;19916;-78
2021/07/15 05:18:32;;;;;;;;;;;17.30;99.90;;;;;;5049678;28;19917;-76
2021/07/15 05:20:59;;;;;;;;;;;17.30;99.90;;;;;;5035389;28;20020;-79
2021/07/15 05:23:24;;;;;;;;;;;17.30;99.90;;;;;;5034880;28;19920;-82
2021/07/15 05:25:52;;;;;;;;;;;17.30;99.90;;;;;;5035340;28;20212;-81
2021/07/15 05:28:18;;;;;;;;;;;17.40;99.90;;;;;;5036280;28;19995;-79
2021/07/15 05:30:44;;;;;;;;;;;17.30;99.90;;;;;;5035518;28;20220;-84
2021/07/15 05:33:10;;;;;;;;;;;17.40;99.90;;;;;;5036296;28;19919;-77
2021/07/15 05:35:35;;;;;;;;;;;17.40;99.90;;;;;;5036141;28;20043;-82
2021/07/15 05:38:04;;;;;;;;;;;17.40;99.90;;;;;;5033244;28;20197;-78
2021/07/15 05:40:30;;;;;;;;;;;17.40;99.90;;;;;;5037269;28;20216;-80
2021/07/15 05:42:55;;;;;;;;;;;17.30;99.90;;;;;;5036128;28;19917;-80
2021/07/15 05:45:21;;;;;;;;;;;17.30;99.90;;;;;;5051986;28;19960;-80
2021/07/15 05:47:46;;;;;;;;;;;17.30;99.90;;;;;;5033816;28;19928;-79
2021/07/15 05:50:12;;;;;;;;;;;17.30;99.90;;;;;;5052372;28;19924;-81
2021/07/15 05:52:37;;;;;;;;;;;17.30;99.90;;;;;;5035200;28;19917;-82
2021/07/15 05:55:03;;;;;;;;;;;17.40;99.90;;;;;;5036388;28;19917;-79
2021/07/15 05:57:32;;;;;;;;;;;17.40;99.90;;;;;;5034068;28;19928;-76
2021/07/15 05:59:58;;;;;;;;;;;17.40;99.90;;;;;;5050185;28;20002;-80
2021/07/15 06:02:24;;;;;;;;;;;17.40;99.90;;;;;;5036416;28;19917;-79
2021/07/15 06:04:49;;;;;;;;;;;17.40;99.90;;;;;;5033889;28;19917;-79
2021/07/15 06:07:15;;;;;;;;;;;17.40;99.90;;;;;;5036849;28;19913;-80
2021/07/15 06:09:41;;;;;;;;;;;17.40;99.90;;;;;;5036924;28;19913;-80
2021/07/15 06:12:06;;;;;;;;;;;17.40;99.90;;;;;;5034450;28;19913;-78
2021/07/15 06:14:32;;;;;;;;;;;17.40;99.90;;;;;;5034724;28;19920;-78
2021/07/15 06:16:57;;;;;;;;;;;17.40;99.90;;;;;;5051752;28;20315;-79
2021/07/15 06:19:23;;;;;;;;;;;17.40;99.90;;;;;;5016221;28;19924;-76
2021/07/15 06:21:48;;;;;;;;;;;17.40;99.90;;;;;;5036380;28;20212;-76
2021/07/15 06:24:14;;;;;;;;;;;17.50;99.90;;;;;;5033510;28;19936;-78
2021/07/15 06:26:40;;;;;;;;;;;17.50;99.90;;;;;;5031589;28;19956;-78
2021/07/15 06:29:05;;;;;;;;;;;17.50;99.90;;;;;;5013851;28;19924;-80
2021/07/15 06:31:31;;;;;;;;;;;17.50;99.90;;;;;;5050412;28;19993;-79
2021/07/15 06:33:56;;;;;;;;;;;17.40;99.90;;;;;;5051686;28;19925;-86
2021/07/15 06:36:22;;;;;;;;;;;17.40;99.90;;;;;;5032022;28;19923;-79
2021/07/15 06:38:48;;;;;;;;;;;17.50;99.90;;;;;;5031458;28;19917;-79
2021/07/15 06:41:14;;;;;;;;;;;17.50;99.90;;;;;;5018406;28;19917;-77
2021/07/15 06:43:39;;;;;;;;;;;17.50;99.90;;;;;;5014546;28;19921;-78
2021/07/15 06:46:05;;;;;;;;;;;17.60;99.90;;;;;;5035277;28;20403;-81
2021/07/15 06:48:31;;;;;;;;;;;17.60;99.90;;;;;;5015424;28;19947;-79
2021/07/15 06:50:56;;;;;;;;;;;17.60;99.90;;;;;;5036968;28;20008;-78
2021/07/15 06:53:22;;;;;;;;;;;17.60;99.90;;;;;;5015270;28;20860;-77
2021/07/15 06:55:48;;;;;;;;;;;17.50;99.90;;;;;;5027754;28;19920;-78
2021/07/15 06:58:14;;;;;;;;;;;17.50;99.90;;;;;;5033494;28;19933;-78
2021/07/15 07:00:40;;;;;;;;;;;17.50;99.90;;;;;;5013723;28;19928;-79
2021/07/15 07:03:05;;;;;;;;;;;17.50;99.90;;;;;;5009291;28;19996;-79
2021/07/15 07:05:31;;;;;;;;;;;17.50;99.90;;;;;;5030263;28;19927;-80
2021/07/15 07:07:58;;;;;;;;;;;17.60;99.90;;;;;;5009447;28;19913;-79
2021/07/15 07:10:24;;;;;;;;;;;17.60;99.90;;;;;;5050935;28;19968;-80
2021/07/15 07:12:50;;;;;;;;;;;17.60;99.90;;;;;;5014805;28;20364;-81
2021/07/15 07:15:17;;;;;;;;;;;17.60;99.90;;;;;;5029899;28;20220;-78
2021/07/15 07:17:43;;;;;;;;;;;17.60;99.90;;;;;;5032197;28;19917;-80
2021/07/15 07:20:09;;;;;;;;;;;17.60;99.90;;;;;;5029876;28;20377;-77
2021/07/15 07:22:35;;;;;;;;;;;17.60;99.90;;;;;;5016044;28;20487;-78
2021/07/15 07:25:01;;;;;;;;;;;17.70;99.90;;;;;;5049838;28;19921;-78
2021/07/15 07:27:27;;;;;;;;;;;17.70;99.90;;;;;;5033880;28;20308;-78
2021/07/15 07:29:53;;;;;;;;;;;17.70;99.90;;;;;;5032776;28;20018;-79
2021/07/15 07:32:19;;;;;;;;;;;17.80;99.90;;;;;;5035087;28;20008;-79
2021/07/15 07:34:44;;;;;;;;;;;17.80;99.90;;;;;;5040178;28;19947;-79
2021/07/15 07:37:10;;;;;;;;;;;17.80;99.90;;;;;;5017691;28;19983;-79
2021/07/15 07:39:35;;;;;;;;;;;17.80;99.90;;;;;;5035457;28;19912;-79
2021/07/15 07:42:01;;;;;;;;;;;17.90;99.90;;;;;;5035033;28;19921;-78
2021/07/15 07:44:26;;;;;;;;;;;17.90;99.90;;;;;;5034671;28;20008;-80
2021/07/15 07:46:52;;;;;;;;;;;17.80;99.90;;;;;;5016073;28;19917;-77
2021/07/15 07:49:18;;;;;;;;;;;17.80;99.90;;;;;;5030700;28;19917;-77
2021/07/15 07:51:43;;;;;;;;;;;17.90;99.90;;;;;;5029401;28;19920;-77
2021/07/15 07:54:09;;;;;;;;;;;17.80;99.90;;;;;;5029921;28;19920;-80
2021/07/15 07:56:34;;;;;;;;;;;17.80;99.90;;;;;;5024169;28;19979;-80
2021/07/15 07:59:00;;;;;;;;;;;17.90;99.90;;;;;;5014265;28;20008;-78
2021/07/15 08:01:28;;;;;;;;;;;17.80;99.90;;;;;;5011995;28;19924;-80
2021/07/15 08:03:54;;;;;;;;;;;17.80;99.90;;;;;;5029203;28;20220;-81
2021/07/15 08:06:20;;;;;;;;;;;17.80;99.90;;;;;;5013939;28;19909;-79
2021/07/15 08:08:46;;;;;;;;;;;17.90;99.90;;;;;;5014044;28;19948;-77
2021/07/15 08:11:12;;;;;;;;;;;17.90;99.90;;;;;;5013990;28;19917;-76
2021/07/15 08:13:38;;;;;;;;;;;18.00;99.90;;;;;;5006260;28;19914;-80
2021/07/15 08:16:03;;;;;;;;;;;18.00;99.90;;;;;;5011629;28;19918;-79
2021/07/15 08:18:29;;;;;;;;;;;18.00;99.90;;;;;;5015184;28;19953;-76
2021/07/15 08:20:55;;;;;;;;;;;18.00;99.90;;;;;;5011737;28;19913;-80
2021/07/15 08:23:21;;;;;;;;;;;18.00;99.90;;;;;;5012507;28;19913;-81
2021/07/15 08:25:46;;;;;;;;;;;18.10;99.90;;;;;;5012042;28;19924;-80
2021/07/15 08:28:12;;;;;;;;;;;18.10;99.90;;;;;;5034243;28;19926;-80
2021/07/15 08:30:37;;;;;;;;;;;18.10;99.90;;;;;;5010863;28;19997;-77
2021/07/15 08:33:03;;;;;;;;;;;18.10;99.90;;;;;;5005803;28;19924;-78
2021/07/15 08:35:31;;;;;;;;;;;18.00;99.90;;;;;;5028144;28;20181;-80
2021/07/15 08:37:57;;;;;;;;;;;18.00;99.90;;;;;;5026254;28;20008;-79
2021/07/15 08:40:22;;;;;;;;;;;18.00;99.90;;;;;;5029120;28;20261;-77
2021/07/15 08:42:49;;;;;;;;;;;18.00;99.90;;;;;;5028776;28;20321;-79
2021/07/15 08:45:14;;;;;;;;;;;18.00;99.90;;;;;;5027091;28;20264;-80
2021/07/15 08:47:41;;;;;;;;;;;18.00;99.90;;;;;;5013782;28;19913;-78
2021/07/15 08:50:07;;;;;;;;;;;18.00;99.90;;;;;;5010287;28;19960;-78
2021/07/15 08:52:36;;;;;;;;;;;18.10;99.90;;;;;;5043692;28;19933;-81
2021/07/15 08:57:31;;;;;;;;;;;18.00;99.90;;;;;;5025222;28;19929;-80
2021/07/15 08:59:58;;;;;;;;;;;18.00;99.90;;;;;;5031614;28;20300;-80
2021/07/15 09:02:23;;;;;;;;;;;18.00;99.90;;;;;;5029642;28;20251;-78
2021/07/15 09:04:49;;;;;;;;;;;18.00;99.90;;;;;;5030855;28;20307;-80
2021/07/15 09:07:16;;;;;;;;;;;18.00;99.90;;;;;;5032626;28;20007;-80
2021/07/15 09:09:45;;;;;;;;;;;18.00;99.90;;;;;;5028866;28;19952;-78
2021/07/15 09:12:11;;;;;;;;;;;18.00;99.90;;;;;;5016935;28;19971;-83
2021/07/15 09:14:47;;;;;;;;;;;18.00;99.90;;;;;;5028208;28;19913;-79
2021/07/15 09:17:13;;;;;;;;;;;18.10;99.90;;;;;;5028572;28;19927;-80
2021/07/15 09:19:39;;;;;;;;;;;18.10;99.90;;;;;;5030756;28;19996;-78
2021/07/15 09:22:06;;;;;;;;;;;18.00;99.90;;;;;;5030508;28;19964;-76
2021/07/15 09:24:32;;;;;;;;;;;18.00;99.90;;;;;;5044229;28;19924;-77
2021/07/15 09:26:58;;;;;;;;;;;18.00;99.90;;;;;;5032234;28;19970;-80
2021/07/15 09:29:24;;;;;;;;;;;18.00;99.90;;;;;;5014976;28;19928;-78
2021/07/15 09:32:00;;;;;;;;;;;18.00;99.90;;;;;;5031178;28;19917;-81
2021/07/15 09:34:26;;;;;;;;;;;17.90;99.90;;;;;;5032868;28;19917;-79
2021/07/15 09:36:53;;;;;;;;;;;17.90;99.90;;;;;;5033190;28;19913;-79
2021/07/15 09:39:22;;;;;;;;;;;17.80;99.90;;;;;;5031323;28;19928;-81
2021/07/15 09:42:18;;;;;;;;;;;17.80;99.90;;;;;;5028789;28;20028;-81
2021/07/15 09:44:46;;;;;;;;;;;17.90;99.90;;;;;;5027961;28;19921;-80
2021/07/15 09:47:31;;;;;;;;;;;17.80;99.90;;;;;;5016320;28;19917;-79
2021/07/15 09:49:58;;;;;;;;;;;17.80;99.90;;;;;;5033666;28;20240;-80
2021/07/15 09:52:23;;;;;;;;;;;17.80;99.90;;;;;;5031482;28;19918;-80
2021/07/15 09:54:49;;;;;;;;;;;17.90;99.90;;;;;;5033853;28;19917;-83
2021/07/15 09:57:27;;;;;;;;;;;17.80;99.90;;;;;;5016044;28;19925;-80
2021/07/15 09:59:55;;;;;;;;;;;17.80;99.90;;;;;;5046880;28;19917;-81
2021/07/15 10:02:28;;;;;;;;;;;17.80;99.90;;;;;;5031189;28;19921;-83
2021/07/15 10:04:54;;;;;;;;;;;17.80;99.90;;;;;;5005958;28;19979;-79
2021/07/15 10:07:24;;;;;;;;;;;17.70;99.90;;;;;;5026750;28;20551;-82
2021/07/15 10:09:49;;;;;;;;;;;17.70;99.90;;;;;;5029580;28;19963;-83
2021/07/15 10:12:25;;;;;;;;;;;17.70;99.90;;;;;;5013805;28;19916;-83
2021/07/15 10:14:51;;;;;;;;;;;17.70;99.90;;;;;;5034111;28;19967;-83
2021/07/15 10:17:36;;;;;;;;;;;17.70;99.90;;;;;;5032873;28;19952;-81
2021/07/15 10:20:12;;;;;;;;;;;17.80;99.90;;;;;;5032516;28;19956;-81
2021/07/15 10:22:37;;;;;;;;;;;17.70;99.90;;;;;;5030891;28;19917;-81
2021/07/15 10:25:03;;;;;;;;;;;17.70;99.90;;;;;;5019224;28;19924;-85
2021/07/15 10:27:29;;;;;;;;;;;17.70;99.90;;;;;;5036943;28;19917;-77
2021/07/15 10:29:57;;;;;;;;;;;17.70;99.90;;;;;;5029170;28;19913;-86
2021/07/15 10:32:24;;;;;;;;;;;17.70;99.90;;;;;;5029218;28;19917;-81
2021/07/15 10:34:52;;;;;;;;;;;17.70;99.90;;;;;;5028552;28;19996;-92
2021/07/15 10:37:18;;;;;;;;;;;17.70;99.90;;;;;;5033311;28;19920;-86
2021/07/15 10:39:44;;;;;;;;;;;17.70;99.90;;;;;;5035275;28;19913;-81
2021/07/15 10:42:10;;;;;;;;;;;17.70;99.90;;;;;;5035961;28;20000;-84
2021/07/15 10:44:36;;;;;;;;;;;17.70;99.90;;;;;;5010118;28;20294;-87
2021/07/15 10:47:02;;;;;;;;;;;17.80;99.90;;;;;;5036262;28;20358;-85
2021/07/15 10:49:27;;;;;;;;;;;17.80;99.90;;;;;;5018750;28;19971;-86
2021/07/15 10:51:54;;;;;;;;;;;17.90;99.90;;;;;;5035056;28;19963;-85
2021/07/15 10:54:20;;;;;;;;;;;17.90;99.90;;;;;;5021130;28;19914;-85
2021/07/15 10:56:47;;;;;;;;;;;17.90;99.90;;;;;;5032818;28;19968;-85
2021/07/15 10:59:26;;;;;;;;;;;18.00;99.90;;;;;;5015073;28;20004;-82
2021/07/15 11:01:53;;;;;;;;;;;18.00;99.90;;;;;;5021146;28;19917;-84
2021/07/15 11:04:33;;;;;;;;;;;18.10;99.90;;;;;;5026587;28;19928;-85
2021/07/15 11:07:01;;;;;;;;;;;18.10;99.90;;;;;;5042986;28;19917;-82
2021/07/15 11:09:32;;;;;;;;;;;18.10;99.90;;;;;;5032567;28;20005;-82
2021/07/15 11:11:58;;;;;;;;;;;18.20;99.90;;;;;;5012692;28;19913;-81
2021/07/15 11:14:35;;;;;;;;;;;18.20;99.90;;;;;;5020266;28;20194;-80
2021/07/15 11:17:01;;;;;;;;;;;18.20;99.90;;;;;;5018907;28;20321;-80
2021/07/15 11:19:45;;;;;;;;;;;18.30;99.90;;;;;;5032534;28;19952;-80
2021/07/15 11:22:31;;;;;;;;;;;18.30;99.90;;;;;;5015259;28;20265;-82
2021/07/15 11:25:00;;;;;;;;;;;18.30;99.90;;;;;;5008352;28;19917;-83
2021/07/15 11:27:31;;;;;;;;;;;18.30;99.90;;;;;;5028139;28;20344;-85
2021/07/15 11:29:57;;;;;;;;;;;18.30;99.90;;;;;;5017289;28;19921;-81
2021/07/15 11:32:26;;;;;;;;;;;18.40;99.90;;;;;;5028210;28;19925;-78
2021/07/15 11:34:54;;;;;;;;;;;18.40;99.90;;;;;;5025640;28;19924;-81
2021/07/15 11:37:25;;;;;;;;;;;18.40;99.90;;;;;;5011137;28;19945;-82
2021/07/15 11:40:01;;;;;;;;;;;18.30;99.90;;;;;;5012928;28;19959;-81
2021/07/15 11:42:28;;;;;;;;;;;18.30;99.90;;;;;;5047923;28;19956;-81
2021/07/15 11:44:57;;;;;;;;;;;18.30;99.90;;;;;;5009423;28;19984;-82
2021/07/15 11:47:42;;;;;;;;;;;18.30;99.90;;;;;;5029411;28;19968;-85
2021/07/15 11:50:33;;;;;;;;;;;18.30;99.90;;;;;;5045984;28;19975;-83
2021/07/15 11:53:17;;;;;;;;;;;18.40;99.90;;;;;;5013985;28;19941;-81
2021/07/15 11:55:43;;;;;;;;;;;18.40;99.90;;;;;;5043119;28;19950;-78
2021/07/15 11:58:29;;;;;;;;;;;18.40;99.90;;;;;;5029392;28;19921;-81
2021/07/15 12:01:13;;;;;;;;;;;18.40;99.90;;;;;;5034508;28;20315;-81
2021/07/15 12:03:55;;;;;;;;;;;18.40;99.90;;;;;;5048965;28;19925;-78
2021/07/15 12:06:20;;;;;;;;;;;18.40;99.90;;;;;;5033812;28;19920;-79
2021/07/15 12:08:47;;;;;;;;;;;18.40;99.90;;;;;;5035181;28;19909;-85
2021/07/15 12:11:12;;;;;;;;;;;18.40;99.90;;;;;;5032222;28;19925;-81
2021/07/15 12:13:38;;;;;;;;;;;18.40;99.90;;;;;;5017203;28;19917;-82
2021/07/15 12:16:05;;;;;;;;;;;18.50;99.90;;;;;;5032719;28;19913;-83
2021/07/15 12:18:35;;;;;;;;;;;18.40;99.90;;;;;;5024246;28;20297;-82
2021/07/15 12:21:01;;;;;;;;;;;18.40;99.90;;;;;;5031339;28;19914;-80
2021/07/15 12:23:32;;;;;;;;;;;18.40;99.90;;;;;;5030468;28;19913;-81
2021/07/15 12:25:58;;;;;;;;;;;18.40;99.90;;;;;;5029485;28;19921;-86
2021/07/15 12:28:26;;;;;;;;;;;18.30;99.90;;;;;;5012429;28;20010;-80
2021/07/15 12:30:57;;;;;;;;;;;18.30;99.90;;;;;;5040394;28;19932;-79
2021/07/15 12:33:33;;;;;;;;;;;18.40;99.90;;;;;;5025513;28;19917;-78
2021/07/15 12:36:06;;;;;;;;;;;18.40;99.90;;;;;;5034193;28;20316;-83
2021/07/15 12:38:32;;;;;;;;;;;18.40;99.90;;;;;;5033626;28;19917;-82
2021/07/15 12:41:09;;;;;;;;;;;18.40;99.90;;;;;;5033544;28;20035;-90
2021/07/15 12:43:40;;;;;;;;;;;18.30;99.90;;;;;;5030198;28;19917;-84
2021/07/15 12:46:13;;;;;;;;;;;18.20;99.90;;;;;;5048440;28;19920;-81
2021/07/15 12:48:46;;;;;;;;;;;18.20;99.90;;;;;;5015112;28;20331;-86
2021/07/15 12:51:12;;;;;;;;;;;18.30;99.90;;;;;;5027669;28;19941;-80
2021/07/15 12:53:42;;;;;;;;;;;18.30;99.90;;;;;;5034370;28;20367;-83
2021/07/15 12:56:07;;;;;;;;;;;18.30;99.90;;;;;;5031454;28;21299;-79
2021/07/15 12:58:33;;;;;;;;;;;18.20;99.90;;;;;;5034376;28;19924;-81
2021/07/15 13:01:03;;;;;;;;;;;18.20;99.90;;;;;;5032829;28;19917;-86
2021/07/15 13:03:29;;;;;;;;;;;18.20;99.90;;;;;;5013790;28;19920;-82
2021/07/15 13:05:54;;;;;;;;;;;18.20;99.90;;;;;;5028587;28;20016;-84
2021/07/15 13:08:26;;;;;;;;;;;18.20;99.90;;;;;;5021291;28;20014;-82
2021/07/15 13:16:20;;;;;;;;;;;18.30;99.90;;;;;;5032688;28;19924;-83
2021/07/15 13:18:45;;;;;;;;;;;18.30;99.90;;;;;;5033189;28;19925;-83
2021/07/15 13:21:23;;;;;;;;;;;18.20;99.90;;;;;;5030744;28;19913;-78
2021/07/15 13:24:01;;;;;;;;;;;18.30;99.90;;;;;;5010580;28;19921;-82
2021/07/15 13:26:27;;;;;;;;;;;18.30;99.90;;;;;;5025988;28;19917;-82
2021/07/15 13:28:53;;;;;;;;;;;18.30;99.90;;;;;;5012252;28;19963;-85
2021/07/15 13:31:18;;;;;;;;;;;18.40;99.90;;;;;;5028775;28;19913;-84
2021/07/15 13:33:45;;;;;;;;;;;18.40;99.90;;;;;;5031723;28;19917;-86
2021/07/15 13:36:11;;;;;;;;;;;18.40;99.90;;;;;;5036541;28;19933;-81
2021/07/15 13:38:41;;;;;;;;;;;18.40;99.90;;;;;;5031848;28;19946;-88
2021/07/15 13:41:20;;;;;;;;;;;18.40;99.90;;;;;;5039860;28;19917;-86
2021/07/15 13:43:46;;;;;;;;;;;18.40;99.90;;;;;;5034498;28;19913;-82
2021/07/15 13:46:17;;;;;;;;;;;18.40;99.90;;;;;;5040277;28;19936;-84
2021/07/15 13:48:44;;;;;;;;;;;18.40;99.90;;;;;;5026348;28;20323;-80
2021/07/15 13:51:12;;;;;;;;;;;18.40;99.90;;;;;;5022766;28;19913;-87
2021/07/15 13:53:42;;;;;;;;;;;18.40;99.90;;;;;;5036741;28;20232;-84
2021/07/15 13:56:07;;;;;;;;;;;18.40;99.90;;;;;;5027742;28;20304;-86
2021/07/15 13:58:33;;;;;;;;;;;18.40;99.90;;;;;;5014422;28;19924;-88
2021/07/15 14:01:01;;;;;;;;;;;18.40;99.90;;;;;;5035564;28;20010;-80
2021/07/15 14:03:26;;;;;;;;;;;18.30;99.90;;;;;;5021504;28;19972;-78
2021/07/15 14:05:54;;;;;;;;;;;18.30;99.90;;;;;;5042242;28;19956;-79
2021/07/15 14:08:21;;;;;;;;;;;18.30;99.90;;;;;;5021515;28;20382;-83
2021/07/15 14:10:46;;;;;;;;;;;18.40;99.90;;;;;;5029877;28;19924;-80
2021/07/15 14:13:13;;;;;;;;;;;18.40;99.90;;;;;;5041918;28;19917;-85
2021/07/15 14:15:40;;;;;;;;;;;18.50;99.90;;;;;;5037967;28;20258;-81
2021/07/15 14:18:06;;;;;;;;;;;18.60;99.90;;;;;;5038633;28;19998;-83
2021/07/15 14:20:33;;;;;;;;;;;18.60;99.90;;;;;;5027886;28;19917;-84
2021/07/15 14:22:59;;;;;;;;;;;18.60;99.90;;;;;;5015872;28;19922;-82
2021/07/15 14:25:26;;;;;;;;;;;18.60;99.90;;;;;;5036069;28;20029;-78
2021/07/15 14:27:52;;;;;;;;;;;18.60;99.90;;;;;;5029419;28;19917;-77